Excellent Pescadores — HORK — position and weather

sailwx.info

Track history (hours):
 
Tides and Currents Weather Stations Pressure Air Temp Water Temp Dewpoint Dewpoint Depression Visibility Wind Speed Wind Dir Waves Ship Positions

Excellent Pescadores

Last reported at 2017-Mar-04 12:32 UTC. Time now 2017-Mar-28 02:24 UTC.
Position S 20°16' E 118°35'.
Warning: this ship's position is 23 days out of date.

Length 148 m; draft 5.2 m.

Type: Cargo ship. MMSI: 356291000.

Date/timePositionNaut miles runAvg speedWind from/ knotsBaromVisibWave heightAir tempDewpointWater temp
2017-Mar-04 12:32S 20°16' E 118°35'9 9.6
2017-Mar-04 11:33S 20°07' E 118°33'2 1.5
2017-Mar-04 10:05S 20°05' E 118°31'0 0.0
2017-Mar-03 17:29S 20°05' E 118°32'0 0.0
2017-Mar-03 12:29S 20°05' E 118°32'0 0.0
2017-Mar-03 11:17S 20°05' E 118°31'0 0.0
2017-Mar-03 10:23S 20°05' E 118°31'0 0.0
2017-Mar-03 09:23S 20°05' E 118°31'0 0.0
2017-Mar-03 00:32S 20°05' E 118°32'5 4.7
2017-Mar-02 23:33S 20°01' E 118°31'1310.2
2017-Mar-02 22:18S 19°49' E 118°26'810.8
2017-Mar-02 21:33S 19°41' E 118°24'1110.5
2017-Mar-02 20:32S 19°31' E 118°21'1110.8
2017-Mar-02 19:33S 19°20' E 118°19'1211.0
2017-Mar-02 18:29S 19°09' E 118°16'4011.9
2017-Mar-02 15:08S 18°30' E 118°06'4311.8
2017-Mar-02 11:29S 18°02' E 117°32'  
2017-Feb-25 02:10N 01°15' E 104°03'6 8.7
2017-Feb-25 01:27N 01°14' E 103°57'5 5.2
2017-Feb-25 00:33N 01°15' E 103°53'0 0.1
2017-Feb-24 23:26N 01°15' E 103°53'0 0.0
2017-Feb-24 21:26N 01°15' E 103°53'0 0.0
2017-Feb-24 20:32N 01°15' E 103°53'0 0.0
2017-Feb-24 18:14N 01°15' E 103°53'0 0.0
2017-Feb-24 14:08N 01°15' E 103°53'0 0.0
2017-Feb-24 12:05N 01°15' E 103°53'0 0.0
2017-Feb-24 09:10N 01°15' E 103°53'0 0.0
2017-Feb-24 03:23N 01°15' E 103°53'6 5.8
2017-Feb-24 02:25N 01°15' E 103°58'  
Track history (hours):
 
Tides and Currents Weather Stations Pressure Air Temp Water Temp Dewpoint Dewpoint Depression Visibility Wind Speed Wind Dir Waves Ship Positions

Excellent Pescadores

Last reported at 2017-Mar-04 12:32 UTC. Time now 2017-Mar-28 02:24 UTC.
Position S 20°16' E 118°35'.
Warning: this ship's position is 23 days out of date.

Length 148 m; draft 5.2 m.

Type: Cargo ship. MMSI: 356291000.

Date/timePositionNaut miles runAvg speedWind from/ knotsBaromVisibWave heightAir tempDewpointWater temp
2017-Mar-04 12:32S 20°16' E 118°35'9 9.6
2017-Mar-04 11:33S 20°07' E 118°33'2 1.5
2017-Mar-04 10:05S 20°05' E 118°31'0 0.0
2017-Mar-03 17:29S 20°05' E 118°32'0 0.0
2017-Mar-03 12:29S 20°05' E 118°32'0 0.0
2017-Mar-03 11:17S 20°05' E 118°31'0 0.0
2017-Mar-03 10:23S 20°05' E 118°31'0 0.0
2017-Mar-03 09:23S 20°05' E 118°31'0 0.0
2017-Mar-03 00:32S 20°05' E 118°32'5 4.7
2017-Mar-02 23:33S 20°01' E 118°31'1310.2
2017-Mar-02 22:18S 19°49' E 118°26'810.8
2017-Mar-02 21:33S 19°41' E 118°24'1110.5
2017-Mar-02 20:32S 19°31' E 118°21'1110.8
2017-Mar-02 19:33S 19°20' E 118°19'1211.0
2017-Mar-02 18:29S 19°09' E 118°16'4011.9
2017-Mar-02 15:08S 18°30' E 118°06'4311.8
2017-Mar-02 11:29S 18°02' E 117°32'  
2017-Feb-25 02:10N 01°15' E 104°03'6 8.7
2017-Feb-25 01:27N 01°14' E 103°57'5 5.2
2017-Feb-25 00:33N 01°15' E 103°53'0 0.1
2017-Feb-24 23:26N 01°15' E 103°53'0 0.0
2017-Feb-24 21:26N 01°15' E 103°53'0 0.0
2017-Feb-24 20:32N 01°15' E 103°53'0 0.0
2017-Feb-24 18:14N 01°15' E 103°53'0 0.0
2017-Feb-24 14:08N 01°15' E 103°53'0 0.0
2017-Feb-24 12:05N 01°15' E 103°53'0 0.0
2017-Feb-24 09:10N 01°15' E 103°53'0 0.0
2017-Feb-24 03:23N 01°15' E 103°53'6 5.8
2017-Feb-24 02:25N 01°15' E 103°58'  

Dump ship's entire track history